Terminal Aerodrome Forecast
Issued by NWS Twin Cities, MN

Home | Current Version | Previous Version | Graphics & Text | Print | Product List | Glossary On
Versions: 1 2 3 4 5 6 7 8 9 10 11 12 13 14 15 16 17 18 19 20 21 22 23 24
000
FTUS43 KMPX 301455 AAA
TAFMSP
TAF AMD
KMSP 301455Z 3015/0118 07014G20KT P6SM SCT120 OVC250
     FM302200 05016G23KT P6SM VCSH BKN050 OVC120
     FM010200 04014G20KT P6SM SCT050 BKN120
     FM010900 02010KT P6SM SCT250=

USA.gov is the U.S. government's official web portal to all federal, state and local government web resources and services.